PWSweather.com
Personal Weather Stations
Station Observations

SkegnessGB

Lat: 53.147585, Lon: 0.345774

Elevation: 18

Station Type: Fine Offset WH3080

http://www.skegnessweather.info/

Latest ConditionsUpdated 10:50:00 PM GMT Friday, Nov 17, 2017
Currently Today's Max Today's Min Today's Average
Temperature 37.8°F3.2°C 47.8°F8.8°C 32.4°F0.2°C 38.9°F3.8°C
Dew Point 35.7°F2.1°C 42.6°F5.9°C 31.1°F-0.5°C 36.8°F2.7°C
Winds 4.7 mph SW7.6 kmh SW 5.5 mph WNW8.9 kmh WNW - 2.7 mph 4.3 kmh
Wind Gusts 5.9 mph9.5 kmh 8.4 mph13.5 kmh - -
Humidity 92% 99% 82% 92%
Pressure 30.23 in1023.7 mb 30.36 in1028.1 mb 30.23 in1023.7 mb -
Hour Temp Dew Point Humidity Winds Wind Gusts Pressure Precip Precip Rate Daily Precip Total
10:50 PM 37.8°F3.2°C 35.7°F2.1°C 92% 4.7 mph SW7.6 kmh SW 5.9 mph9.5 kmh 30.23 in1023.7 mb 0.00 in0.0 mm 0.00 in0.0 mm 0.00 in0.0 mm
10:40 PM 37.8°F3.2°C 35.7°F2.1°C 92% 3.0 mph SW4.8 kmh SW 4.2 mph6.8 kmh 30.24 in1024.0 mb 0.00 in0.0 mm 0.00 in0.0 mm 0.00 in0.0 mm
10:30 PM 37.8°F3.2°C 35.7°F2.1°C 92% 3.6 mph WSW5.8 kmh WSW 4.2 mph6.8 kmh 30.24 in1024.0 mb 0.00 in0.0 mm 0.00 in0.0 mm 0.00 in0.0 mm
10:20 PM 37.9°F3.3°C 35.8°F2.1°C 92% 4.5 mph SW7.2 kmh SW 4.9 mph7.9 kmh 30.24 in1024.0 mb 0.00 in0.0 mm 0.00 in0.0 mm 0.00 in0.0 mm
10:10 PM 38.3°F3.5°C 36.2°F2.3°C 92% 4.1 mph WSW6.6 kmh WSW 4.9 mph7.9 kmh 30.24 in1024.0 mb 0.00 in0.0 mm 0.00 in0.0 mm 0.00 in0.0 mm
10:00 PM 38.7°F3.7°C 36.5°F2.5°C 92% 4.3 mph S6.9 kmh S 4.9 mph7.9 kmh 30.24 in1024.0 mb 0.00 in0.0 mm 0.00 in0.0 mm 0.00 in0.0 mm
09:50 PM 38.7°F3.7°C 36.5°F2.5°C 92% 4.9 mph S7.9 kmh S 5.9 mph9.5 kmh 30.25 in1024.4 mb 0.00 in0.0 mm 0.00 in0.0 mm 0.00 in0.0 mm
09:40 PM 38.8°F3.8°C 36.7°F2.6°C 92% 4.9 mph SW7.9 kmh SW 6.6 mph10.6 kmh 30.24 in1024.0 mb 0.00 in0.0 mm 0.00 in0.0 mm 0.00 in0.0 mm
09:30 PM 38.7°F3.7°C 36.5°F2.5°C 92% 5.0 mph SSW8.0 kmh SSW 6.6 mph10.6 kmh 30.23 in1023.7 mb 0.00 in0.0 mm 0.00 in0.0 mm 0.00 in0.0 mm
09:20 PM 38.5°F3.6°C 36.4°F2.4°C 92% 3.0 mph SW4.8 kmh SW 4.9 mph7.9 kmh 30.25 in1024.4 mb 0.00 in0.0 mm 0.00 in0.0 mm 0.00 in0.0 mm
09:10 PM 38.8°F3.8°C 36.7°F2.6°C 92% 1.8 mph WSW2.9 kmh WSW 3.4 mph5.5 kmh 30.25 in1024.4 mb 0.00 in0.0 mm 0.00 in0.0 mm 0.00 in0.0 mm
09:00 PM 39.2°F4.0°C 37.1°F2.8°C 92% 1.9 mph S3.1 kmh S 3.4 mph5.5 kmh 30.25 in1024.4 mb 0.00 in0.0 mm 0.00 in0.0 mm 0.00 in0.0 mm
08:50 PM 39.7°F4.3°C 37.6°F3.1°C 92% 4.8 mph WSW7.7 kmh WSW 6.6 mph10.6 kmh 30.26 in1024.7 mb 0.00 in0.0 mm 0.00 in0.0 mm 0.00 in0.0 mm
08:40 PM 39.7°F4.3°C 37.6°F3.1°C 92% 4.5 mph S7.2 kmh S 5.9 mph9.5 kmh 30.25 in1024.4 mb 0.00 in0.0 mm 0.00 in0.0 mm 0.00 in0.0 mm
08:30 PM 39.9°F4.4°C 37.8°F3.2°C 92% 3.7 mph SW6.0 kmh SW 4.9 mph7.9 kmh 30.25 in1024.4 mb 0.00 in0.0 mm 0.00 in0.0 mm 0.00 in0.0 mm
08:20 PM 39.9°F4.4°C 37.8°F3.2°C 92% 3.6 mph SW5.8 kmh SW 4.9 mph7.9 kmh 30.26 in1024.7 mb 0.00 in0.0 mm 0.00 in0.0 mm 0.00 in0.0 mm
08:10 PM 39.9°F4.4°C 37.8°F3.2°C 92% 2.5 mph SW4.0 kmh SW 3.4 mph5.5 kmh 30.26 in1024.7 mb 0.00 in0.0 mm 0.00 in0.0 mm 0.00 in0.0 mm
08:00 PM 40.1°F4.5°C 38.0°F3.3°C 92% 3.6 mph WSW5.8 kmh WSW 4.9 mph7.9 kmh 30.26 in1024.7 mb 0.00 in0.0 mm 0.00 in0.0 mm 0.00 in0.0 mm
07:50 PM 40.1°F4.5°C 38.2°F3.4°C 93% 3.7 mph SW6.0 kmh SW 4.9 mph7.9 kmh 30.26 in1024.7 mb 0.00 in0.0 mm 0.00 in0.0 mm 0.00 in0.0 mm
07:40 PM 40.3°F4.6°C 38.4°F3.6°C 93% 3.3 mph SSW5.3 kmh SSW 4.2 mph6.8 kmh 30.26 in1024.7 mb 0.00 in0.0 mm 0.00 in0.0 mm 0.00 in0.0 mm
07:30 PM 40.3°F4.6°C 38.4°F3.6°C 93% 3.1 mph WSW5.0 kmh WSW 4.2 mph6.8 kmh 30.27 in1025.1 mb 0.00 in0.0 mm 0.00 in0.0 mm 0.00 in0.0 mm
07:20 PM 40.3°F4.6°C 38.4°F3.6°C 93% 3.2 mph WSW5.1 kmh WSW 4.2 mph6.8 kmh 30.26 in1024.7 mb 0.00 in0.0 mm 0.00 in0.0 mm 0.00 in0.0 mm
07:10 PM 40.1°F4.5°C 38.2°F3.4°C 93% 1.7 mph WSW2.7 kmh WSW 3.4 mph5.5 kmh 30.26 in1024.7 mb 0.00 in0.0 mm 0.00 in0.0 mm 0.00 in0.0 mm
07:00 PM 40.3°F4.6°C 38.4°F3.6°C 93% 2.8 mph SSW4.5 kmh SSW 4.2 mph6.8 kmh 30.27 in1025.1 mb 0.00 in0.0 mm 0.00 in0.0 mm 0.00 in0.0 mm
06:50 PM 40.1°F4.5°C 38.2°F3.4°C 93% 2.6 mph SW4.2 kmh SW 4.2 mph6.8 kmh 30.27 in1025.1 mb 0.00 in0.0 mm 0.00 in0.0 mm 0.00 in0.0 mm
06:40 PM 40.1°F4.5°C 38.2°F3.4°C 93% 1.4 mph SSW2.3 kmh SSW 2.5 mph4.0 kmh 30.28 in1025.4 mb 0.00 in0.0 mm 0.00 in0.0 mm 0.00 in0.0 mm
06:30 PM 40.3°F4.6°C 38.4°F3.6°C 93% 2.7 mph WSW4.3 kmh WSW 2.5 mph4.0 kmh 30.28 in1025.4 mb 0.00 in0.0 mm 0.00 in0.0 mm 0.00 in0.0 mm
06:20 PM 40.3°F4.6°C 38.4°F3.6°C 93% 2.7 mph SSW4.3 kmh SSW 3.4 mph5.5 kmh 30.29 in1025.7 mb 0.00 in0.0 mm 0.00 in0.0 mm 0.00 in0.0 mm
06:10 PM 40.3°F4.6°C 38.4°F3.6°C 93% 2.4 mph SW3.9 kmh SW 4.2 mph6.8 kmh 30.29 in1025.7 mb 0.00 in0.0 mm 0.00 in0.0 mm 0.00 in0.0 mm
06:00 PM 40.1°F4.5°C 38.2°F3.4°C 93% 2.2 mph SSW3.5 kmh SSW 3.4 mph5.5 kmh 30.29 in1025.7 mb 0.00 in0.0 mm 0.00 in0.0 mm 0.00 in0.0 mm
05:50 PM 40.3°F4.6°C 38.4°F3.6°C 93% 1.9 mph WSW3.1 kmh WSW 4.2 mph6.8 kmh 30.30 in1026.1 mb 0.00 in0.0 mm 0.00 in0.0 mm 0.00 in0.0 mm
05:40 PM 40.5°F4.7°C 38.3°F3.5°C 92% 2.1 mph SW3.4 kmh SW 3.4 mph5.5 kmh 30.29 in1025.7 mb 0.00 in0.0 mm 0.00 in0.0 mm 0.00 in0.0 mm
05:30 PM 40.6°F4.8°C 38.5°F3.6°C 92% 2.3 mph SW3.7 kmh SW 2.5 mph4.0 kmh 30.30 in1026.1 mb 0.00 in0.0 mm 0.00 in0.0 mm 0.00 in0.0 mm
05:20 PM 41.2°F5.1°C 39.0°F3.9°C 92% 2.7 mph SW4.3 kmh SW 3.4 mph5.5 kmh 30.29 in1025.7 mb 0.00 in0.0 mm 0.00 in0.0 mm 0.00 in0.0 mm
05:10 PM 41.5°F5.3°C 39.4°F4.1°C 92% 2.8 mph SW4.5 kmh SW 3.4 mph5.5 kmh 30.29 in1025.7 mb 0.00 in0.0 mm 0.00 in0.0 mm 0.00 in0.0 mm
05:00 PM 41.9°F5.5°C 39.7°F4.3°C 92% 3.3 mph SSW5.3 kmh SSW 5.9 mph9.5 kmh 30.29 in1025.7 mb 0.00 in0.0 mm 0.00 in0.0 mm 0.00 in0.0 mm
04:50 PM 42.3°F5.7°C 40.1°F4.5°C 92% 3.1 mph SW5.0 kmh SW 4.9 mph7.9 kmh 30.30 in1026.1 mb 0.00 in0.0 mm 0.00 in0.0 mm 0.00 in0.0 mm
04:40 PM 42.4°F5.8°C 40.3°F4.6°C 92% 2.7 mph SSW4.3 kmh SSW 3.4 mph5.5 kmh 30.30 in1026.1 mb 0.00 in0.0 mm 0.00 in0.0 mm 0.00 in0.0 mm
04:30 PM 42.8°F6.0°C 40.6°F4.8°C 92% 2.8 mph W4.5 kmh W 3.4 mph5.5 kmh 30.30 in1026.1 mb 0.00 in0.0 mm 0.00 in0.0 mm 0.00 in0.0 mm
04:20 PM 43.2°F6.2°C 41.0°F5.0°C 92% 2.8 mph SW4.5 kmh SW 3.4 mph5.5 kmh 30.29 in1025.7 mb 0.00 in0.0 mm 0.00 in0.0 mm 0.00 in0.0 mm
04:10 PM 43.5°F6.4°C 41.4°F5.2°C 92% 1.8 mph WSW2.9 kmh WSW 3.4 mph5.5 kmh 30.30 in1026.1 mb 0.00 in0.0 mm 0.00 in0.0 mm 0.00 in0.0 mm
04:00 PM 43.9°F6.6°C 41.7°F5.4°C 92% 2.0 mph SSW3.2 kmh SSW 3.4 mph5.5 kmh 30.29 in1025.7 mb 0.00 in0.0 mm 0.00 in0.0 mm 0.00 in0.0 mm
03:50 PM 44.2°F6.8°C 41.8°F5.4°C 91% 1.6 mph WSW2.6 kmh WSW 2.5 mph4.0 kmh 30.29 in1025.7 mb 0.00 in0.0 mm 0.00 in0.0 mm 0.00 in0.0 mm
03:40 PM 44.8°F7.1°C 42.0°F5.6°C 90% 2.2 mph WSW3.5 kmh WSW 4.2 mph6.8 kmh 30.30 in1026.1 mb 0.00 in0.0 mm 0.00 in0.0 mm 0.00 in0.0 mm
03:30 PM 45.0°F7.2°C 42.2°F5.7°C 90% 2.9 mph SW4.7 kmh SW 4.2 mph6.8 kmh 30.30 in1026.1 mb 0.00 in0.0 mm 0.00 in0.0 mm 0.00 in0.0 mm
03:20 PM 45.1°F7.3°C 42.4°F5.8°C 90% 3.5 mph SW5.6 kmh SW 5.9 mph9.5 kmh 30.30 in1026.1 mb 0.00 in0.0 mm 0.00 in0.0 mm 0.00 in0.0 mm
03:10 PM 45.5°F7.5°C 41.0°F5.0°C 84% 2.6 mph SW4.2 kmh SW 4.2 mph6.8 kmh 30.29 in1025.7 mb 0.00 in0.0 mm 0.00 in0.0 mm 0.00 in0.0 mm
03:00 PM 45.7°F7.6°C 40.8°F4.9°C 83% 3.4 mph W5.5 kmh W 4.9 mph7.9 kmh 30.30 in1026.1 mb 0.00 in0.0 mm 0.00 in0.0 mm 0.00 in0.0 mm
02:50 PM 45.9°F7.7°C 41.0°F5.0°C 83% 3.6 mph SW5.8 kmh SW 4.9 mph7.9 kmh 30.30 in1026.1 mb 0.00 in0.0 mm 0.00 in0.0 mm 0.00 in0.0 mm
02:40 PM 46.4°F8.0°C 41.8°F5.4°C 84% 3.3 mph SW5.3 kmh SW 4.9 mph7.9 kmh 30.30 in1026.1 mb 0.00 in0.0 mm 0.00 in0.0 mm 0.00 in0.0 mm
02:30 PM 46.6°F8.1°C 41.7°F5.4°C 83% 3.4 mph SW5.5 kmh SW 4.9 mph7.9 kmh 30.30 in1026.1 mb 0.00 in0.0 mm 0.00 in0.0 mm 0.00 in0.0 mm
02:20 PM 46.8°F8.2°C 41.9°F5.5°C 83% 3.3 mph SSW5.3 kmh SSW 4.9 mph7.9 kmh 30.30 in1026.1 mb 0.00 in0.0 mm 0.00 in0.0 mm 0.00 in0.0 mm
02:10 PM 46.9°F8.3°C 42.1°F5.6°C 83% 3.6 mph SW5.8 kmh SW 4.9 mph7.9 kmh 30.31 in1026.4 mb 0.00 in0.0 mm 0.00 in0.0 mm 0.00 in0.0 mm
02:00 PM 47.1°F8.4°C 42.2°F5.7°C 83% 2.5 mph SW4.0 kmh SW 3.4 mph5.5 kmh 30.31 in1026.4 mb 0.00 in0.0 mm 0.00 in0.0 mm 0.00 in0.0 mm
01:50 PM 47.3°F8.5°C 42.1°F5.6°C 82% 3.4 mph SW5.5 kmh SW 4.9 mph7.9 kmh 30.31 in1026.4 mb 0.00 in0.0 mm 0.00 in0.0 mm 0.00 in0.0 mm
01:40 PM 47.3°F8.5°C 42.1°F5.6°C 82% 4.4 mph SSW7.1 kmh SSW 7.6 mph12.2 kmh 30.31 in1026.4 mb 0.00 in0.0 mm 0.00 in0.0 mm 0.00 in0.0 mm
01:30 PM 47.5°F8.6°C 42.6°F5.9°C 83% 3.4 mph SSW5.5 kmh SSW 7.6 mph12.2 kmh 30.31 in1026.4 mb 0.00 in0.0 mm 0.00 in0.0 mm 0.00 in0.0 mm
01:20 PM 47.5°F8.6°C 42.6°F5.9°C 83% 2.7 mph SSW4.3 kmh SSW 3.4 mph5.5 kmh 30.32 in1026.8 mb 0.00 in0.0 mm 0.00 in0.0 mm 0.00 in0.0 mm
01:10 PM 47.3°F8.5°C 42.4°F5.8°C 83% 3.9 mph NW6.3 kmh NW 4.2 mph6.8 kmh 30.32 in1026.8 mb 0.00 in0.0 mm 0.00 in0.0 mm 0.00 in0.0 mm
01:00 PM 47.3°F8.5°C 42.4°F5.8°C 83% 5.0 mph WSW8.0 kmh WSW 6.6 mph10.6 kmh 30.33 in1027.1 mb 0.00 in0.0 mm 0.00 in0.0 mm 0.00 in0.0 mm
12:50 PM 47.3°F8.5°C 42.4°F5.8°C 83% 3.9 mph SW6.3 kmh SW 4.9 mph7.9 kmh 30.33 in1027.1 mb 0.00 in0.0 mm 0.00 in0.0 mm 0.00 in0.0 mm
12:40 PM 47.3°F8.5°C 42.1°F5.6°C 82% 4.6 mph S7.4 kmh S 8.4 mph13.5 kmh 30.33 in1027.1 mb 0.00 in0.0 mm 0.00 in0.0 mm 0.00 in0.0 mm
12:30 PM 47.8°F8.8°C 42.6°F5.9°C 82% 4.6 mph WSW7.4 kmh WSW 7.6 mph12.2 kmh 30.33 in1027.1 mb 0.00 in0.0 mm 0.00 in0.0 mm 0.00 in0.0 mm
12:20 PM 47.8°F8.8°C 42.6°F5.9°C 82% 4.7 mph SE7.6 kmh SE 6.6 mph10.6 kmh 30.33 in1027.1 mb 0.00 in0.0 mm 0.00 in0.0 mm 0.00 in0.0 mm
12:10 PM 47.7°F8.7°C 42.4°F5.8°C 82% 4.4 mph SW7.1 kmh SW 5.9 mph9.5 kmh 30.34 in1027.4 mb 0.00 in0.0 mm 0.00 in0.0 mm 0.00 in0.0 mm
12:00 PM 47.7°F8.7°C 42.4°F5.8°C 82% 4.7 mph SW7.6 kmh SW 5.9 mph9.5 kmh 30.33 in1027.1 mb 0.00 in0.0 mm 0.00 in0.0 mm 0.00 in0.0 mm
11:50 AM 47.3°F8.5°C 42.1°F5.6°C 82% 5.5 mph WNW8.9 kmh WNW 5.9 mph9.5 kmh 30.35 in1027.8 mb 0.00 in0.0 mm 0.00 in0.0 mm 0.00 in0.0 mm
11:40 AM 47.1°F8.4°C 41.9°F5.5°C 82% 4.2 mph S6.8 kmh S 5.9 mph9.5 kmh 30.34 in1027.4 mb 0.00 in0.0 mm 0.00 in0.0 mm 0.00 in0.0 mm
11:30 AM 47.5°F8.6°C 42.3°F5.7°C 82% 2.7 mph WNW4.3 kmh WNW 4.2 mph6.8 kmh 30.34 in1027.4 mb 0.00 in0.0 mm 0.00 in0.0 mm 0.00 in0.0 mm
11:20 AM 47.1°F8.4°C 42.2°F5.7°C 83% 2.7 mph WSW4.3 kmh WSW 4.2 mph6.8 kmh 30.34 in1027.4 mb 0.00 in0.0 mm 0.00 in0.0 mm 0.00 in0.0 mm
11:10 AM 46.4°F8.0°C 41.8°F5.4°C 84% 2.6 mph SW4.2 kmh SW 4.2 mph6.8 kmh 30.34 in1027.4 mb 0.00 in0.0 mm 0.00 in0.0 mm 0.00 in0.0 mm
11:00 AM 45.0°F7.2°C 41.9°F5.5°C 89% 2.9 mph S4.7 kmh S 4.2 mph6.8 kmh 30.35 in1027.8 mb 0.00 in0.0 mm 0.00 in0.0 mm 0.00 in0.0 mm
10:50 AM 44.1°F6.7°C 41.0°F5.0°C 89% 3.5 mph W5.6 kmh W 4.9 mph7.9 kmh 30.35 in1027.8 mb 0.00 in0.0 mm 0.00 in0.0 mm 0.00 in0.0 mm
10:40 AM 43.9°F6.6°C 41.4°F5.2°C 91% 3.0 mph SSW4.8 kmh SSW 4.2 mph6.8 kmh 30.35 in1027.8 mb 0.00 in0.0 mm 0.00 in0.0 mm 0.00 in0.0 mm
10:30 AM 43.5°F6.4°C 41.4°F5.2°C 92% 2.8 mph SSW4.5 kmh SSW 4.2 mph6.8 kmh 30.35 in1027.8 mb 0.00 in0.0 mm 0.00 in0.0 mm 0.00 in0.0 mm
10:20 AM 42.4°F5.8°C 40.6°F4.8°C 93% 3.4 mph W5.5 kmh W 4.2 mph6.8 kmh 30.35 in1027.8 mb 0.00 in0.0 mm 0.00 in0.0 mm 0.00 in0.0 mm
10:10 AM 41.5°F5.3°C 39.9°F4.4°C 94% 3.4 mph SW5.5 kmh SW 4.9 mph7.9 kmh 30.35 in1027.8 mb 0.00 in0.0 mm 0.00 in0.0 mm 0.00 in0.0 mm
10:00 AM 40.5°F4.7°C 39.1°F3.9°C 95% 3.5 mph WSW5.6 kmh WSW 4.9 mph7.9 kmh 30.36 in1028.1 mb 0.00 in0.0 mm 0.00 in0.0 mm 0.00 in0.0 mm
09:50 AM 39.6°F4.2°C 38.8°F3.8°C 97% 2.8 mph SSE4.5 kmh SSE 6.6 mph10.6 kmh 30.35 in1027.8 mb 0.00 in0.0 mm 0.00 in0.0 mm 0.00 in0.0 mm
09:40 AM 38.7°F3.7°C 38.1°F3.4°C 98% 3.2 mph WSW5.1 kmh WSW 4.9 mph7.9 kmh 30.35 in1027.8 mb 0.00 in0.0 mm 0.00 in0.0 mm 0.00 in0.0 mm
09:30 AM 37.6°F3.1°C 37.3°F2.9°C 99% 3.3 mph S5.3 kmh S 4.2 mph6.8 kmh 30.35 in1027.8 mb 0.00 in0.0 mm 0.00 in0.0 mm 0.00 in0.0 mm
09:20 AM 36.7°F2.6°C 36.4°F2.4°C 99% 3.1 mph SSW5.0 kmh SSW 4.2 mph6.8 kmh 30.35 in1027.8 mb 0.00 in0.0 mm 0.00 in0.0 mm 0.00 in0.0 mm
09:10 AM 36.0°F2.2°C 35.7°F2.1°C 99% 3.8 mph SW6.1 kmh SW 4.2 mph6.8 kmh 30.35 in1027.8 mb 0.00 in0.0 mm 0.00 in0.0 mm 0.00 in0.0 mm
09:00 AM 35.2°F1.8°C 35.0°F1.7°C 99% 3.2 mph SW5.1 kmh SW 4.9 mph7.9 kmh 30.35 in1027.8 mb 0.00 in0.0 mm 0.00 in0.0 mm 0.00 in0.0 mm
08:50 AM 34.9°F1.6°C 34.6°F1.4°C 99% 2.2 mph SW3.5 kmh SW 4.2 mph6.8 kmh 30.35 in1027.8 mb 0.00 in0.0 mm 0.00 in0.0 mm 0.00 in0.0 mm
08:40 AM 34.5°F1.4°C 34.0°F1.1°C 98% 2.3 mph WSW3.7 kmh WSW 3.4 mph5.5 kmh 30.35 in1027.8 mb 0.00 in0.0 mm 0.00 in0.0 mm 0.00 in0.0 mm
08:30 AM 34.2°F1.2°C 33.7°F0.9°C 98% 1.4 mph SW2.3 kmh SW 2.5 mph4.0 kmh 30.35 in1027.8 mb 0.00 in0.0 mm 0.00 in0.0 mm 0.00 in0.0 mm
08:20 AM 33.8°F1.0°C 33.3°F0.7°C 98% 2.3 mph SSW3.7 kmh SSW 2.5 mph4.0 kmh 30.35 in1027.8 mb 0.00 in0.0 mm 0.00 in0.0 mm 0.00 in0.0 mm
08:10 AM 33.6°F0.9°C 33.1°F0.6°C 98% 2.2 mph SW3.5 kmh SW 3.4 mph5.5 kmh 30.35 in1027.8 mb 0.00 in0.0 mm 0.00 in0.0 mm 0.00 in0.0 mm
08:00 AM 33.3°F0.7°C 32.8°F0.4°C 98% 1.9 mph SW3.1 kmh SW 2.5 mph4.0 kmh 30.35 in1027.8 mb 0.00 in0.0 mm 0.00 in0.0 mm 0.00 in0.0 mm
07:50 AM 33.1°F0.6°C 32.6°F0.3°C 98% 2.4 mph SW3.9 kmh SW 2.5 mph4.0 kmh 30.35 in1027.8 mb 0.00 in0.0 mm 0.00 in0.0 mm 0.00 in0.0 mm
07:40 AM 33.1°F0.6°C 32.6°F0.3°C 98% 3.4 mph WSW5.5 kmh WSW 4.2 mph6.8 kmh 30.35 in1027.8 mb 0.00 in0.0 mm 0.00 in0.0 mm 0.00 in0.0 mm
07:30 AM 33.1°F0.6°C 32.6°F0.3°C 98% 2.8 mph SW4.5 kmh SW 4.9 mph7.9 kmh 30.34 in1027.4 mb 0.00 in0.0 mm 0.00 in0.0 mm 0.00 in0.0 mm
07:20 AM 33.1°F0.6°C 32.6°F0.3°C 98% 2.9 mph SSW4.7 kmh SSW 4.2 mph6.8 kmh 30.35 in1027.8 mb 0.00 in0.0 mm 0.00 in0.0 mm 0.00 in0.0 mm
07:10 AM 33.1°F0.6°C 32.6°F0.3°C 98% 1.8 mph SW2.9 kmh SW 4.2 mph6.8 kmh 30.34 in1027.4 mb 0.00 in0.0 mm 0.00 in0.0 mm 0.00 in0.0 mm
07:00 AM 33.1°F0.6°C 32.6°F0.3°C 98% 2.6 mph SSW4.2 kmh SSW 4.2 mph6.8 kmh 30.34 in1027.4 mb 0.00 in0.0 mm 0.00 in0.0 mm 0.00 in0.0 mm
06:50 AM 32.9°F0.5°C 32.2°F0.1°C 97% 2.6 mph SW4.2 kmh SW 4.2 mph6.8 kmh 30.34 in1027.4 mb 0.00 in0.0 mm 0.00 in0.0 mm 0.00 in0.0 mm
06:40 AM 32.9°F0.5°C 32.2°F0.1°C 97% 2.5 mph WSW4.0 kmh WSW 4.2 mph6.8 kmh 30.34 in1027.4 mb 0.00 in0.0 mm 0.00 in0.0 mm 0.00 in0.0 mm
06:30 AM 32.7°F0.4°C 32.0°F0.0°C 97% 2.3 mph SW3.7 kmh SW 3.4 mph5.5 kmh 30.34 in1027.4 mb 0.00 in0.0 mm 0.00 in0.0 mm 0.00 in0.0 mm
06:20 AM 32.5°F0.3°C 31.8°F-0.1°C 97% 1.1 mph W1.8 kmh W 2.5 mph4.0 kmh 30.34 in1027.4 mb 0.00 in0.0 mm 0.00 in0.0 mm 0.00 in0.0 mm
06:10 AM 32.5°F0.3°C 31.8°F-0.1°C 97% 1.1 mph SW1.8 kmh SW 1.7 mph2.7 kmh 30.34 in1027.4 mb 0.00 in0.0 mm 0.00 in0.0 mm 0.00 in0.0 mm
06:00 AM 32.7°F0.4°C 32.0°F0.0°C 97% 1.4 mph SW2.3 kmh SW 2.5 mph4.0 kmh 30.34 in1027.4 mb 0.00 in0.0 mm 0.00 in0.0 mm 0.00 in0.0 mm
05:50 AM 32.7°F0.4°C 32.0°F0.0°C 97% 1.1 mph SW1.8 kmh SW 1.7 mph2.7 kmh 30.34 in1027.4 mb 0.00 in0.0 mm 0.00 in0.0 mm 0.00 in0.0 mm
05:40 AM 32.7°F0.4°C 32.0°F0.0°C 97% 1.5 mph SSW2.4 kmh SSW 2.5 mph4.0 kmh 30.34 in1027.4 mb 0.00 in0.0 mm 0.00 in0.0 mm 0.00 in0.0 mm
05:30 AM 32.7°F0.4°C 32.0°F0.0°C 97% 2.4 mph SSW3.9 kmh SSW 3.4 mph5.5 kmh 30.34 in1027.4 mb 0.00 in0.0 mm 0.00 in0.0 mm 0.00 in0.0 mm
05:20 AM 32.7°F0.4°C 32.0°F0.0°C 97% 2.6 mph SSW4.2 kmh SSW 3.4 mph5.5 kmh 30.34 in1027.4 mb 0.00 in0.0 mm 0.00 in0.0 mm 0.00 in0.0 mm
05:10 AM 32.7°F0.4°C 32.0°F0.0°C 97% 2.5 mph W4.0 kmh W 2.5 mph4.0 kmh 30.33 in1027.1 mb 0.00 in0.0 mm 0.00 in0.0 mm 0.00 in0.0 mm
05:00 AM 32.5°F0.3°C 31.5°F-0.3°C 96% 2.2 mph SW3.5 kmh SW 3.4 mph5.5 kmh 30.34 in1027.4 mb 0.00 in0.0 mm 0.00 in0.0 mm 0.00 in0.0 mm
04:50 AM 32.5°F0.3°C 31.5°F-0.3°C 96% 1.7 mph SW2.7 kmh SW 2.5 mph4.0 kmh 30.34 in1027.4 mb 0.00 in0.0 mm 0.00 in0.0 mm 0.00 in0.0 mm
04:40 AM 32.5°F0.3°C 31.5°F-0.3°C 96% 0.9 mph SW1.4 kmh SW 2.5 mph4.0 kmh 30.34 in1027.4 mb 0.00 in0.0 mm 0.00 in0.0 mm 0.00 in0.0 mm
04:30 AM 32.5°F0.3°C 31.5°F-0.3°C 96% 0.7 mph W1.1 kmh W 1.7 mph2.7 kmh 30.34 in1027.4 mb 0.00 in0.0 mm 0.00 in0.0 mm 0.00 in0.0 mm
04:20 AM 32.7°F0.4°C 31.7°F-0.2°C 96% 0.7 mph SW1.1 kmh SW 1.7 mph2.7 kmh 30.34 in1027.4 mb 0.00 in0.0 mm 0.00 in0.0 mm 0.00 in0.0 mm
04:10 AM 32.7°F0.4°C 31.7°F-0.2°C 96% 1.3 mph SW2.1 kmh SW 2.5 mph4.0 kmh 30.34 in1027.4 mb 0.00 in0.0 mm 0.00 in0.0 mm 0.00 in0.0 mm
04:00 AM 32.5°F0.3°C 31.5°F-0.3°C 96% 0.9 mph WSW1.4 kmh WSW 1.7 mph2.7 kmh 30.34 in1027.4 mb 0.00 in0.0 mm 0.00 in0.0 mm 0.00 in0.0 mm
03:50 AM 32.4°F0.2°C 31.1°F-0.5°C 95% Calm Calm 1.7 mph2.7 kmh 30.33 in1027.1 mb 0.00 in0.0 mm 0.00 in0.0 mm 0.00 in0.0 mm
03:40 AM 32.7°F0.4°C 31.5°F-0.3°C 95% 0.5 mph SW0.8 kmh SW 0.7 mph1.1 kmh 30.34 in1027.4 mb 0.00 in0.0 mm 0.00 in0.0 mm 0.00 in0.0 mm
03:30 AM 32.9°F0.5°C 31.6°F-0.2°C 95% 0.1 mph SSW0.2 kmh SSW 1.7 mph2.7 kmh 30.33 in1027.1 mb 0.00 in0.0 mm 0.00 in0.0 mm 0.00 in0.0 mm
03:20 AM 33.1°F0.6°C 31.8°F-0.1°C 95% 1.3 mph SW2.1 kmh SW 2.5 mph4.0 kmh 30.34 in1027.4 mb 0.00 in0.0 mm 0.00 in0.0 mm 0.00 in0.0 mm
03:10 AM 33.3°F0.7°C 32.0°F0.0°C 95% 2.2 mph W3.5 kmh W 2.5 mph4.0 kmh 30.34 in1027.4 mb 0.00 in0.0 mm 0.00 in0.0 mm 0.00 in0.0 mm
03:00 AM 33.3°F0.7°C 32.0°F0.0°C 95% 2.1 mph WSW3.4 kmh WSW 2.5 mph4.0 kmh 30.34 in1027.4 mb 0.00 in0.0 mm 0.00 in0.0 mm 0.00 in0.0 mm
02:50 AM 33.4°F0.8°C 32.2°F0.1°C 95% 1.2 mph WSW1.9 kmh WSW 2.5 mph4.0 kmh 30.33 in1027.1 mb 0.00 in0.0 mm 0.00 in0.0 mm 0.00 in0.0 mm
02:40 AM 33.4°F0.8°C 32.2°F0.1°C 95% 1.1 mph WSW1.8 kmh WSW 1.7 mph2.7 kmh 30.33 in1027.1 mb 0.00 in0.0 mm 0.00 in0.0 mm 0.00 in0.0 mm
02:30 AM 33.4°F0.8°C 32.2°F0.1°C 95% 1.9 mph W3.1 kmh W 2.5 mph4.0 kmh 30.34 in1027.4 mb 0.00 in0.0 mm 0.00 in0.0 mm 0.00 in0.0 mm
02:20 AM 33.6°F0.9°C 32.3°F0.2°C 95% 1.8 mph S2.9 kmh S 2.5 mph4.0 kmh 30.34 in1027.4 mb 0.00 in0.0 mm 0.00 in0.0 mm 0.00 in0.0 mm
02:10 AM 33.4°F0.8°C 32.2°F0.1°C 95% 2.4 mph W3.9 kmh W 2.5 mph4.0 kmh 30.34 in1027.4 mb 0.00 in0.0 mm 0.00 in0.0 mm 0.00 in0.0 mm
02:00 AM 33.6°F0.9°C 32.1°F0.1°C 94% 1.1 mph SW1.8 kmh SW 1.7 mph2.7 kmh 30.34 in1027.4 mb 0.00 in0.0 mm 0.00 in0.0 mm 0.00 in0.0 mm
01:50 AM 33.8°F1.0°C 32.3°F0.2°C 94% 1.6 mph SW2.6 kmh SW 2.5 mph4.0 kmh 30.35 in1027.8 mb 0.00 in0.0 mm 0.00 in0.0 mm 0.00 in0.0 mm
01:40 AM 34.0°F1.1°C 32.4°F0.2°C 94% 2.8 mph WSW4.5 kmh WSW 3.4 mph5.5 kmh 30.34 in1027.4 mb 0.00 in0.0 mm 0.00 in0.0 mm 0.00 in0.0 mm
01:30 AM 34.2°F1.2°C 32.6°F0.3°C 94% 2.7 mph SW4.3 kmh SW 4.2 mph6.8 kmh 30.34 in1027.4 mb 0.00 in0.0 mm 0.00 in0.0 mm 0.00 in0.0 mm
01:20 AM 34.3°F1.3°C 32.8°F0.4°C 94% 2.7 mph SW4.3 kmh SW 3.4 mph5.5 kmh 30.34 in1027.4 mb 0.00 in0.0 mm 0.00 in0.0 mm 0.00 in0.0 mm
01:10 AM 34.5°F1.4°C 33.0°F0.6°C 94% 1.4 mph SSW2.3 kmh SSW 3.4 mph5.5 kmh 30.33 in1027.1 mb 0.00 in0.0 mm 0.00 in0.0 mm 0.00 in0.0 mm
01:00 AM 34.7°F1.5°C 33.2°F0.7°C 94% 2.5 mph SW4.0 kmh SW 4.2 mph6.8 kmh 30.34 in1027.4 mb 0.00 in0.0 mm 0.00 in0.0 mm 0.00 in0.0 mm
12:50 AM 34.9°F1.6°C 33.3°F0.7°C 94% 3.1 mph WSW5.0 kmh WSW 4.2 mph6.8 kmh 30.33 in1027.1 mb 0.00 in0.0 mm 0.00 in0.0 mm 0.00 in0.0 mm
12:40 AM 35.1°F1.7°C 33.2°F0.7°C 93% 3.1 mph SW5.0 kmh SW 4.2 mph6.8 kmh 30.34 in1027.4 mb 0.00 in0.0 mm 0.00 in0.0 mm 0.00 in0.0 mm
12:30 AM 35.2°F1.8°C 33.4°F0.8°C 93% 1.9 mph SW3.1 kmh SW 2.5 mph4.0 kmh 30.34 in1027.4 mb 0.00 in0.0 mm 0.00 in0.0 mm 0.00 in0.0 mm
12:20 AM 35.6°F2.0°C 34.1°F1.2°C 94% 2.2 mph WSW3.5 kmh WSW 3.4 mph5.5 kmh 30.34 in1027.4 mb 0.00 in0.0 mm 0.00 in0.0 mm 0.00 in0.0 mm
12:10 AM 35.8°F2.1°C 34.2°F1.2°C 94% 2.3 mph SW3.7 kmh SW 4.9 mph7.9 kmh 30.33 in1027.1 mb 0.00 in0.0 mm 0.00 in0.0 mm 0.00 in0.0 mm
12:00 AM 35.6°F2.0°C 34.1°F1.2°C 94% 2.7 mph SW4.3 kmh SW 3.4 mph5.5 kmh 30.34 in1027.4 mb 0.00 in0.0 mm 0.00 in0.0 mm 0.00 in0.0 mm